createdAt,value
2023-05-14T00:00:38.481Z,56.46
2023-05-14T00:05:43.916Z,55.39
2023-05-14T00:10:47.937Z,55.54
2023-05-14T00:15:52.262Z,55.42
2023-05-14T00:20:57.864Z,55.42
2023-05-14T00:26:01.893Z,55.43
2023-05-14T00:31:06.517Z,54.83
2023-05-14T00:36:12.275Z,54.62
2023-05-14T00:41:16.362Z,54.36
2023-05-14T00:46:21.356Z,54.02
2023-05-14T00:51:28.408Z,54.66
2023-05-14T00:56:33.259Z,55.67
2023-05-14T01:01:40.173Z,56.12
2023-05-14T01:06:57.195Z,56.34
2023-05-14T01:12:07.285Z,55.92
2023-05-14T01:17:13.546Z,54.83
2023-05-14T01:22:19.083Z,54.76
2023-05-14T01:27:27.384Z,54.90
2023-05-14T01:32:32.963Z,54.55
2023-05-14T01:37:41.128Z,53.92
2023-05-14T01:42:51.940Z,54.49
2023-05-14T01:47:56.087Z,54.02
2023-05-14T01:53:01.808Z,53.16
2023-05-14T01:58:06.029Z,53.31
2023-05-14T02:03:10.469Z,53.06
2023-05-14T02:08:16.339Z,52.67
2023-05-14T02:13:20.932Z,50.41
2023-05-14T02:18:26.010Z,49.87
2023-05-14T02:23:40.949Z,49.95
2023-05-14T02:28:46.814Z,49.95
2023-05-14T02:33:51.148Z,50.10
2023-05-14T02:38:56.953Z,50.82
2023-05-14T02:44:03.346Z,51.71
2023-05-14T02:49:08.260Z,52.47
2023-05-14T02:54:13.719Z,53.10
2023-05-14T02:59:17.766Z,55.24
2023-05-14T03:04:24.286Z,55.10
2023-05-14T03:09:29.897Z,55.84
2023-05-14T03:14:34.023Z,56.53
2023-05-14T03:19:38.061Z,58.07
2023-05-14T03:24:43.673Z,58.95
2023-05-14T03:29:47.815Z,60.61
2023-05-14T03:34:51.883Z,60.54
2023-05-14T03:39:57.356Z,66.04
2023-05-14T03:45:01.408Z,66.23
2023-05-14T03:50:06.135Z,68.00
2023-05-14T03:55:12.272Z,65.71
2023-05-14T04:00:17.124Z,65.89
2023-05-14T04:05:21.849Z,65.64
2023-05-14T04:10:27.441Z,65.96
2023-05-14T04:15:32.164Z,63.60
2023-05-14T04:20:40.377Z,63.63
2023-05-14T04:25:45.921Z,63.44
2023-05-14T04:30:50.046Z,63.67
2023-05-14T04:35:54.557Z,62.48
2023-05-14T04:41:00.404Z,66.07
2023-05-14T04:46:05.048Z,67.02
2023-05-14T04:51:09.848Z,65.20
2023-05-14T04:56:15.444Z,61.88
2023-05-14T05:01:19.475Z,60.40
2023-05-14T05:06:23.519Z,60.23
2023-05-14T05:11:28.903Z,63.06
2023-05-14T05:16:33.160Z,61.23
2023-05-14T05:21:39.501Z,60.59
2023-05-14T05:26:44.919Z,60.80
2023-05-14T05:31:49.689Z,66.17
2023-05-14T05:36:54.020Z,66.97
2023-05-14T05:41:59.735Z,65.95
2023-05-14T05:47:04.084Z,65.65
2023-05-14T05:52:08.517Z,67.63
2023-05-14T05:57:13.977Z,70.65
2023-05-14T06:02:18.039Z,74.15
2023-05-14T06:07:22.165Z,74.56
2023-05-14T06:12:27.551Z,74.68
2023-05-14T06:17:31.666Z,73.39
2023-05-14T06:22:35.979Z,73.01
2023-05-14T06:27:41.539Z,73.71
2023-05-14T06:32:46.006Z,71.98
2023-05-14T06:37:54.036Z,72.65
2023-05-14T06:42:59.780Z,74.50
2023-05-14T06:48:06.144Z,75.68
2023-05-14T06:53:10.482Z,74.79
2023-05-14T06:58:16.019Z,75.87
2023-05-14T07:03:20.069Z,75.73
2023-05-14T07:08:24.235Z,75.88
2023-05-14T07:13:29.775Z,76.01
2023-05-14T07:18:34.651Z,76.46
2023-05-14T07:23:39.678Z,78.26
2023-05-14T07:28:45.234Z,79.47
2023-05-14T07:33:49.327Z,80.18
2023-05-14T07:38:53.468Z,79.58
2023-05-14T07:43:59.456Z,79.20
2023-05-14T07:49:04.769Z,76.78
2023-05-14T07:54:11.390Z,79.43
2023-05-14T07:59:16.788Z,79.96
2023-05-14T08:04:21.163Z,80.45
2023-05-14T08:09:25.672Z,83.39
2023-05-14T08:14:31.615Z,83.06
2023-05-14T08:19:35.847Z,84.02
2023-05-14T08:24:43.235Z,86.05
2023-05-14T08:29:49.809Z,85.51
2023-05-14T08:34:56.220Z,87.10
2023-05-14T08:40:02.624Z,84.36
2023-05-14T08:45:14.761Z,84.63
2023-05-14T08:50:22.885Z,85.04
2023-05-14T08:55:32.675Z,83.23
2023-05-14T09:00:38.474Z,81.67
2023-05-14T09:05:43.952Z,82.32
2023-05-14T09:10:49.726Z,81.32
2023-05-14T09:15:57.787Z,78.89
2023-05-14T09:21:03.138Z,80.00
2023-05-14T09:26:07.502Z,80.32
2023-05-14T09:31:13.773Z,81.04
2023-05-14T09:36:18.647Z,79.13
2023-05-14T09:41:27.927Z,80.68
2023-05-14T09:46:34.022Z,79.68
2023-05-14T09:51:39.634Z,79.25
2023-05-14T09:56:44.930Z,77.42
2023-05-14T10:01:54.883Z,78.42
2023-05-14T10:06:59.351Z,77.85
2023-05-14T10:12:03.842Z,78.15
2023-05-14T10:17:18.187Z,77.78
2023-05-14T10:22:25.247Z,78.35
2023-05-14T10:27:30.124Z,79.69
2023-05-14T10:32:37.981Z,79.67
2023-05-14T10:37:42.203Z,79.42
2023-05-14T10:42:48.282Z,80.99
2023-05-14T10:47:56.928Z,83.18
2023-05-14T10:53:04.669Z,82.11
2023-05-14T10:58:08.872Z,83.41
2023-05-14T11:03:15.159Z,82.61
2023-05-14T11:08:23.918Z,82.90
2023-05-14T11:13:29.980Z,85.83
2023-05-14T11:18:38.860Z,85.48
2023-05-14T11:23:43.325Z,85.20
2023-05-14T11:28:48.043Z,84.75
2023-05-14T11:33:55.501Z,85.90
2023-05-14T11:38:59.514Z,87.37
2023-05-14T11:44:05.310Z,87.67
2023-05-14T11:49:12.073Z,86.20
2023-05-14T11:54:16.544Z,87.46
2023-05-14T11:59:20.602Z,87.67
2023-05-14T12:04:26.285Z,85.18
2023-05-14T12:09:30.490Z,85.25
2023-05-14T12:14:39.864Z,85.16
2023-05-14T12:19:45.781Z,85.28
2023-05-14T12:24:54.991Z,84.98
2023-05-14T12:30:19.992Z,83.64
2023-05-14T12:35:27.277Z,82.51
2023-05-14T12:40:31.769Z,83.27
2023-05-14T12:45:35.823Z,82.22
2023-05-14T12:50:41.899Z,81.90
2023-05-14T12:55:45.997Z,82.42
2023-05-14T13:00:50.123Z,82.05
2023-05-14T13:05:56.767Z,81.18
2023-05-14T13:11:01.147Z,81.30
2023-05-14T13:16:05.687Z,80.86
2023-05-14T13:21:12.696Z,82.63
2023-05-14T13:26:17.426Z,80.96
2023-05-14T13:31:21.613Z,79.85
2023-05-14T13:36:27.564Z,80.99
2023-05-14T13:41:35.303Z,81.48
2023-05-14T13:46:41.199Z,80.53
2023-05-14T13:51:46.934Z,80.64
2023-05-14T13:56:51.206Z,79.34
2023-05-14T14:01:55.815Z,79.87
2023-05-14T14:07:01.556Z,79.85
2023-05-14T14:12:06.305Z,80.67
2023-05-14T14:17:10.559Z,80.86
2023-05-14T14:22:17.649Z,80.52
2023-05-14T14:27:22.600Z,81.72
2023-05-14T14:32:27.203Z,82.48
2023-05-14T14:37:32.875Z,82.94
2023-05-14T14:42:37.729Z,83.41
2023-05-14T14:47:48.219Z,83.01
2023-05-14T14:52:57.859Z,83.52
2023-05-14T14:58:03.521Z,82.70
2023-05-14T15:03:10.318Z,80.27
2023-05-14T15:08:17.207Z,80.99
2023-05-14T15:13:21.766Z,79.72
2023-05-14T15:18:26.053Z,80.51
2023-05-14T15:23:31.845Z,81.88
2023-05-14T15:28:36.095Z,83.40
2023-05-14T15:33:41.960Z,84.64
2023-05-14T15:38:47.427Z,85.62
2023-05-14T15:43:52.334Z,86.35
2023-05-14T15:48:59.025Z,84.34
2023-05-14T15:54:05.274Z,84.50
2023-05-14T15:59:14.209Z,83.72
2023-05-14T16:04:18.556Z,85.30
2023-05-14T16:09:24.400Z,84.87
2023-05-14T16:14:28.630Z,81.96
2023-05-14T16:19:32.877Z,83.40
2023-05-14T16:24:38.502Z,86.28
2023-05-14T16:29:42.774Z,84.88
2023-05-14T16:34:49.947Z,84.80
2023-05-14T16:39:55.407Z,86.80
2023-05-14T16:44:59.619Z,85.38
2023-05-14T16:50:04.365Z,89.18
2023-05-14T16:55:11.015Z,91.95
2023-05-14T17:00:16.338Z,93.02
2023-05-14T17:05:20.467Z,93.37
2023-05-14T17:10:26.535Z,93.67
2023-05-14T17:15:31.292Z,95.49
2023-05-14T17:20:36.242Z,94.34
2023-05-14T17:25:42.170Z,94.95
2023-05-14T17:30:47.207Z,94.82
2023-05-14T17:35:51.552Z,94.21
2023-05-14T17:40:57.183Z,93.00
2023-05-14T17:46:01.421Z,94.12
2023-05-14T17:51:05.656Z,94.42
2023-05-14T17:56:12.451Z,89.77
2023-05-14T18:01:16.687Z,88.21
2023-05-14T18:06:21.133Z,90.28
2023-05-14T18:11:33.316Z,91.93
2023-05-14T18:16:38.724Z,94.36
2023-05-14T18:21:43.641Z,95.85
2023-05-14T18:26:49.376Z,92.17
2023-05-14T18:31:53.816Z,92.41
2023-05-14T18:36:58.883Z,93.37
2023-05-14T18:42:04.830Z,91.55
2023-05-14T18:47:09.452Z,93.30
2023-05-14T18:52:13.566Z,93.51
2023-05-14T18:57:19.482Z,92.43
2023-05-14T19:02:24.455Z,94.70
2023-05-14T19:07:30.621Z,95.06
2023-05-14T19:12:36.506Z,95.08
2023-05-14T19:17:42.460Z,93.43
2023-05-14T19:22:47.171Z,95.66
2023-05-14T19:27:54.673Z,97.14
2023-05-14T19:32:59.141Z,99.19
2023-05-14T19:38:03.521Z,95.93
2023-05-14T19:43:10.370Z,94.98
2023-05-14T19:48:16.020Z,96.23
2023-05-14T19:53:29.551Z,97.31
2023-05-14T19:58:35.757Z,96.73
2023-05-14T20:03:40.294Z,96.65
2023-05-14T20:08:46.910Z,99.18
2023-05-14T20:13:53.192Z,99.08
2023-05-14T20:18:58.688Z,95.63
2023-05-14T20:24:03.025Z,94.47
2023-05-14T20:29:11.358Z,91.92
2023-05-14T20:34:16.240Z,92.57
2023-05-14T20:39:21.167Z,94.77
2023-05-14T20:44:26.875Z,96.97
2023-05-14T20:49:31.323Z,96.59
2023-05-14T20:54:35.522Z,98.00
2023-05-14T20:59:41.629Z,98.71
2023-05-14T21:04:46.154Z,99.81
2023-05-14T21:09:52.773Z,99.44
2023-05-14T21:14:59.482Z,100.00
2023-05-14T21:20:03.942Z,100.00
2023-05-14T21:25:09.305Z,100.00
2023-05-14T21:30:15.705Z,100.00
2023-05-14T21:35:20.544Z,100.00
2023-05-14T21:40:24.685Z,98.61
2023-05-14T21:45:30.308Z,100.00
2023-05-14T21:50:34.494Z,100.00
2023-05-14T21:55:39.537Z,100.00
2023-05-14T22:00:47.261Z,100.00
2023-05-14T22:05:51.754Z,100.00
2023-05-14T22:10:56.658Z,100.00
2023-05-14T22:16:12.012Z,100.00
2023-05-14T22:21:17.696Z,100.00
2023-05-14T22:26:21.926Z,100.00
2023-05-14T22:31:28.702Z,100.00
2023-05-14T22:36:33.702Z,100.00
2023-05-14T22:41:37.758Z,100.00
2023-05-14T22:46:43.200Z,100.00
2023-05-14T22:51:47.252Z,100.00
2023-05-14T22:56:51.648Z,100.00
2023-05-14T23:01:57.308Z,100.00
2023-05-14T23:07:01.439Z,100.00
2023-05-14T23:12:06.120Z,100.00
2023-05-14T23:17:12.214Z,100.00
2023-05-14T23:22:16.271Z,100.00
2023-05-14T23:27:22.642Z,100.00
2023-05-14T23:32:28.408Z,100.00
2023-05-14T23:37:33.707Z,100.00
2023-05-14T23:42:37.794Z,100.00
2023-05-14T23:47:43.356Z,100.00
2023-05-14T23:52:47.714Z,100.00
2023-05-14T23:57:51.825Z,100.00
